Time;durP1;ratioP1;P1;durP2;ratioP2;P2;SDS_P1;SDS_P2;PMS_P1;PMS_P2;Temp;Humidity;BMP_temperature;BMP_pressure;BME280_temperature;BME280_humidity;BME280_pressure;Samples;Min_cycle;Max_cycle;Signal;HPM_P1;HPM_P2
2022/01/23 00:01:07;;;;;;;15.00;6.30;;;;;;;-0.43;66.75;100966.95;106166;1273;138457;-68
2022/01/23 00:03:42;;;;;;;11.40;5.50;;;;;;;-0.45;66.89;100968.60;105970;1272;108993;-73
2022/01/23 00:06:10;;;;;;;14.30;5.50;;;;;;;-0.50;66.94;100970.39;105870;1271;139306;-73
2022/01/23 00:08:39;;;;;;;13.10;6.20;;;;;;;-0.54;67.09;100967.04;105959;1273;97809;-73
2022/01/23 00:11:08;;;;;;;13.00;5.80;;;;;;;-0.57;67.11;100970.70;106038;1273;139445;-72
2022/01/23 00:17:15;;;;;;;11.20;5.80;;;;;;;-0.62;67.37;100973.16;105998;1273;109113;-74
2022/01/23 00:19:14;;;;;;;12.40;5.40;;;;;;;-0.65;67.34;100968.34;105924;1273;138532;-74
2022/01/23 00:21:42;;;;;;;11.90;6.00;;;;;;;-0.66;67.52;100966.08;106091;1271;97956;-74
2022/01/23 00:32:33;;;;;;;14.90;6.00;;;;;;;-0.63;67.44;100967.51;106142;1273;97886;-73
2022/01/23 00:35:01;;;;;;;14.20;6.00;;;;;;;-0.65;67.86;100966.96;105983;1272;138115;-73
2022/01/23 00:37:30;;;;;;;14.20;6.10;;;;;;;-0.69;67.75;100964.98;106091;1270;113176;-72
2022/01/23 00:39:58;;;;;;;16.20;6.30;;;;;;;-0.71;67.96;100964.73;106118;1273;109422;-72
2022/01/23 00:42:28;;;;;;;14.50;6.30;;;;;;;-0.74;68.04;100960.58;105974;1272;138503;-72
2022/01/23 00:45:09;;;;;;;12.60;5.70;;;;;;;-0.74;68.21;100959.17;106078;1271;97895;-72
2022/01/23 00:47:37;;;;;;;13.00;5.80;;;;;;;-0.75;68.29;100956.09;106040;1271;138652;-72
2022/01/23 00:50:07;;;;;;;12.70;5.80;;;;;;;-0.76;68.39;100958.45;107695;1270;112345;-73
2022/01/23 00:52:36;;;;;;;13.40;5.70;;;;;;;-0.76;68.35;100964.27;106276;1273;108999;-72
2022/01/23 00:55:05;;;;;;;12.50;5.90;;;;;;;-0.76;68.65;100966.84;106047;1271;138567;-72
2022/01/23 00:57:34;;;;;;;14.60;5.90;;;;;;;-0.76;68.50;100968.03;106084;1273;97852;-72
2022/01/23 01:00:06;;;;;;;14.60;5.60;;;;;;;-0.76;68.61;100966.83;106092;1273;138467;-73
2022/01/23 01:02:34;;;;;;;12.80;5.80;;;;;;;-0.76;68.73;100959.83;106036;1271;111604;-72
2022/01/23 01:05:04;;;;;;;12.30;5.30;;;;;;;-0.76;68.76;100958.97;105949;1273;138717;-72
2022/01/23 01:07:33;;;;;;;13.50;6.00;;;;;;;-0.76;68.62;100965.30;106150;1273;108846;-72
2022/01/23 01:10:08;;;;;;;12.40;5.70;;;;;;;-0.75;68.92;100966.67;106022;1273;97928;-72
2022/01/23 01:12:40;;;;;;;14.30;6.30;;;;;;;-0.73;68.75;100966.23;106011;1272;138516;-73
2022/01/23 01:15:38;;;;;;;14.80;5.70;;;;;;;-0.72;68.62;100965.09;106099;1273;112731;-74
2022/01/23 01:32:06;;;;;;;15.10;5.90;;;;;;;-0.75;69.34;100981.20;106219;1271;107728;-72
2022/01/23 01:34:39;;;;;;;13.60;5.80;;;;;;;-0.78;69.60;100984.55;106137;1271;109055;-72
2022/01/23 01:37:10;;;;;;;12.00;5.50;;;;;;;-0.81;69.34;100992.32;107019;1273;138711;-72
2022/01/23 01:39:45;;;;;;;15.70;6.30;;;;;;;-0.82;69.56;100994.19;105920;1273;97855;-72
2022/01/23 01:42:14;;;;;;;13.00;5.30;;;;;;;-0.81;69.60;100991.29;105949;1273;138573;-72
2022/01/23 01:44:43;;;;;;;11.40;5.50;;;;;;;-0.82;69.72;100991.95;106047;1273;108920;-72
2022/01/23 01:47:23;;;;;;;13.20;5.40;;;;;;;-0.80;69.81;100988.76;106061;1271;138776;-72
2022/01/23 01:50:01;;;;;;;13.40;6.10;;;;;;;-0.80;69.91;100988.07;105888;1273;97838;-73
2022/01/23 01:52:31;;;;;;;9.60;5.20;;;;;;;-0.79;69.98;100989.80;105958;1273;98005;-73
2022/01/23 01:55:04;;;;;;;12.40;5.60;;;;;;;-0.78;69.85;100987.45;106016;1273;139352;-74
2022/01/23 01:57:44;;;;;;;9.60;5.00;;;;;;;-0.74;69.95;100992.84;106155;1272;108998;-74
2022/01/23 02:00:44;;;;;;;10.50;5.30;;;;;;;-0.68;69.98;100989.23;105999;1272;137821;-73
2022/01/23 02:08:16;;;;;;;12.90;5.70;;;;;;;-0.66;69.93;100992.88;106073;1273;97871;-73
2022/01/23 02:09:18;;;;;;;;;;;;;;;-0.66;69.82;100989.64;106906;1273;112422;-73
2022/01/23 02:12:09;;;;;;;14.60;5.40;;;;;;;-0.68;70.01;100981.04;107507;1273;125184;-74
2022/01/23 02:14:46;;;;;;;14.70;6.60;;;;;;;-0.72;70.05;100989.99;107607;1273;109173;-74
2022/01/23 02:17:41;;;;;;;15.00;6.10;;;;;;;-0.76;70.11;100986.46;107185;1273;138658;-73
2022/01/23 02:23:20;;;;;;;15.40;5.50;;;;;;;-0.79;70.40;100993.39;106079;1273;139588;-73
2022/01/23 02:51:50;;;;;;;;;;;;;;;-0.63;70.22;101020.47;105833;1277;112537;-72
2022/01/23 02:54:46;;;;;;;13.10;5.80;;;;;;;-0.64;70.14;101020.60;105662;1277;124225;-72
2022/01/23 02:57:21;;;;;;;12.50;5.80;;;;;;;-0.65;70.60;101020.41;105658;1277;108907;-73
2022/01/23 02:59:51;;;;;;;10.00;5.30;;;;;;;-0.67;70.15;101021.38;105506;1278;139400;-72
2022/01/23 03:02:43;;;;;;;13.90;5.70;;;;;;;-0.70;70.33;101025.90;106134;1261;97760;-74
2022/01/23 03:05:35;;;;;;;13.20;6.10;;;;;;;-0.72;70.26;101027.58;106102;1269;112959;-73
2022/01/23 03:08:19;;;;;;;13.10;4.80;;;;;;;-0.71;70.33;101029.83;106056;1271;140561;-73
2022/01/23 03:10:59;;;;;;;13.80;5.20;;;;;;;-0.68;70.44;101031.44;106202;1271;109057;-73
2022/01/23 03:13:45;;;;;;;13.50;5.30;;;;;;;-0.62;70.44;101037.03;105952;1271;137863;-73
2022/01/23 03:24:43;;;;;;;16.70;5.80;;;;;;;-0.61;70.52;101050.23;105688;1276;138358;-71
2022/01/23 03:27:37;;;;;;;12.70;5.60;;;;;;;-0.63;70.19;101061.79;107351;1276;96339;-72
2022/01/23 03:30:17;;;;;;;11.10;4.90;;;;;;;-0.66;70.53;101055.73;107115;1276;138771;-72
2022/01/23 03:32:47;;;;;;;12.90;6.10;;;;;;;-0.69;70.63;101056.00;107357;1276;112686;-73
2022/01/23 03:35:18;;;;;;;13.20;5.50;;;;;;;-0.73;70.49;101063.90;107378;1276;108515;-72
2022/01/23 03:37:48;;;;;;;12.00;5.50;;;;;;;-0.77;70.44;101070.78;107202;1276;140266;-71
2022/01/23 03:40:18;;;;;;;15.90;5.70;;;;;;;-0.77;70.48;101077.11;106105;1276;98100;-72
2022/01/23 03:42:55;;;;;;;10.60;4.80;;;;;;;-0.74;70.53;101077.86;105597;1276;139812;-71
2022/01/23 03:50:58;;;;;;;14.30;4.90;;;;;;;-0.66;70.84;101084.75;105728;1277;108800;-72
2022/01/23 03:53:35;;;;;;;11.20;5.40;;;;;;;-0.62;70.88;101091.86;105787;1274;97936;-72
2022/01/23 03:56:05;;;;;;;15.10;5.80;;;;;;;-0.62;70.76;101096.48;105698;1271;139283;-73
2022/01/23 03:58:34;;;;;;;11.20;5.10;;;;;;;-0.61;70.79;101101.80;106186;1271;112670;-71
2022/01/23 04:01:06;;;;;;;11.60;5.80;;;;;;;-0.60;70.72;101110.69;106133;1270;138734;-73
2022/01/23 04:03:38;;;;;;;12.10;5.70;;;;;;;-0.62;70.78;101114.76;105940;1273;108147;-73
2022/01/23 04:06:08;;;;;;;14.40;5.10;;;;;;;-0.62;70.64;101114.41;106260;1272;138227;-72
2022/01/23 04:08:38;;;;;;;9.80;5.30;;;;;;;-0.63;70.64;101114.21;106133;1273;97969;-73
2022/01/23 04:11:07;;;;;;;13.40;5.20;;;;;;;-0.66;70.55;101108.00;105974;1273;113347;-73
2022/01/23 04:13:44;;;;;;;10.10;4.70;;;;;;;-0.70;70.58;101109.61;105880;1273;138811;-72
2022/01/23 04:16:33;;;;;;;10.80;4.90;;;;;;;-0.70;71.00;101114.22;105986;1273;108604;-73
2022/01/23 04:19:14;;;;;;;10.90;4.90;;;;;;;-0.69;70.84;101121.58;105790;1273;138860;-73
2022/01/23 04:33:14;;;;;;;14.50;5.60;;;;;;;-0.60;70.92;101132.90;105843;1277;98021;-73
2022/01/23 04:45:12;;;;;;;13.80;5.50;;;;;;;-0.64;70.96;101132.80;105674;1277;137822;-74
2022/01/23 05:01:05;;;;;;;10.60;5.10;;;;;;;-0.65;71.06;101119.29;105086;1283;138258;-72
2022/01/23 05:04:08;;;;;;;11.70;5.00;;;;;;;-0.69;70.93;101121.91;105845;1276;98193;-73
2022/01/23 05:07:09;;;;;;;11.00;5.30;;;;;;;-0.74;71.22;101126.02;105773;1276;137982;-73
2022/01/23 05:09:56;;;;;;;11.70;5.30;;;;;;;-0.78;71.17;101123.52;105854;1276;108934;-72
2022/01/23 05:12:33;;;;;;;11.00;5.20;;;;;;;-0.83;71.26;101131.08;105608;1276;137979;-71
2022/01/23 05:15:01;;;;;;;11.50;5.10;;;;;;;-0.85;71.35;101141.25;105822;1276;98013;-72
2022/01/23 05:17:30;;;;;;;10.90;4.60;;;;;;;-0.87;71.53;101144.96;105780;1276;98442;-72
2022/01/23 05:19:59;;;;;;;14.10;5.50;;;;;;;-0.88;71.76;101149.38;105679;1276;139654;-71
2022/01/23 05:22:35;;;;;;;10.20;4.60;;;;;;;-0.86;71.40;101154.55;105850;1276;109145;-72
2022/01/23 05:25:11;;;;;;;10.80;5.00;;;;;;;-0.89;71.36;101155.33;105782;1276;138137;-73
2022/01/23 05:27:40;;;;;;;17.20;5.90;;;;;;;-0.92;71.74;101160.69;105779;1276;96674;-72
2022/01/23 05:30:10;;;;;;;14.90;5.30;;;;;;;-0.92;71.63;101167.00;105646;1276;138143;-72
2022/01/23 05:32:40;;;;;;;9.20;5.60;;;;;;;-0.96;71.91;101169.45;106067;1273;112644;-74
2022/01/23 05:35:13;;;;;;;11.70;4.90;;;;;;;-0.97;71.89;101175.23;106111;1271;108941;-73
2022/01/23 05:37:42;;;;;;;12.90;5.70;;;;;;;-0.97;71.94;101169.25;105960;1273;137979;-74
2022/01/23 05:40:17;;;;;;;11.20;5.40;;;;;;;-1.00;71.84;101165.23;106019;1273;98009;-72
2022/01/23 05:42:48;;;;;;;12.60;5.50;;;;;;;-1.01;72.04;101166.92;105930;1270;137305;-73
2022/01/23 05:45:17;;;;;;;14.50;5.70;;;;;;;-1.01;72.37;101171.69;106055;1273;112467;-73
2022/01/23 05:48:11;;;;;;;10.20;5.00;;;;;;;-0.99;72.26;101169.72;105824;1273;138935;-73
2022/01/23 05:51:12;;;;;;;10.90;4.80;;;;;;;-0.93;72.53;101175.52;105992;1272;108720;-73
2022/01/23 05:54:15;;;;;;;10.00;5.20;;;;;;;-0.87;72.40;101181.17;105977;1273;138084;-72
2022/01/23 05:57:07;;;;;;;10.10;5.70;;;;;;;-0.82;72.55;101179.94;105959;1273;97941;-73
2022/01/23 05:59:56;;;;;;;10.90;5.40;;;;;;;-0.79;72.27;101190.45;105965;1273;138030;-72
2022/01/23 06:02:25;;;;;;;13.80;5.70;;;;;;;-0.78;72.16;101197.45;106130;1273;109344;-72
2022/01/23 06:04:54;;;;;;;9.70;5.10;;;;;;;-0.78;72.35;101193.86;106091;1273;109149;-73
2022/01/23 06:07:35;;;;;;;10.30;5.40;;;;;;;-0.81;72.33;101197.38;105943;1273;138746;-71
2022/01/23 06:10:07;;;;;;;14.50;6.00;;;;;;;-0.84;72.21;101204.81;106181;1271;97868;-74
2022/01/23 06:12:35;;;;;;;12.50;5.30;;;;;;;-0.85;72.44;101207.86;105926;1273;138432;-71
2022/01/23 06:15:05;;;;;;;13.90;5.50;;;;;;;-0.82;72.36;101210.14;106133;1273;107853;-73
2022/01/23 06:17:34;;;;;;;10.40;4.80;;;;;;;-0.81;72.15;101219.74;106475;1274;107613;-72
2022/01/23 06:20:22;;;;;;;11.30;5.10;;;;;;;-0.75;72.56;101219.92;106022;1273;139973;-73
2022/01/23 06:23:09;;;;;;;12.50;5.40;;;;;;;-0.66;72.70;101216.62;106109;1272;97717;-73
2022/01/23 06:25:57;;;;;;;10.20;5.30;;;;;;;-0.60;72.69;101218.14;106006;1272;139021;-73
2022/01/23 06:28:39;;;;;;;11.10;5.50;;;;;;;-0.56;72.25;101222.34;106078;1273;109064;-73
2022/01/23 06:31:08;;;;;;;17.60;5.30;;;;;;;-0.56;72.36;101224.72;105858;1273;138416;-73
2022/01/23 06:33:38;;;;;;;11.50;5.20;;;;;;;-0.56;72.29;101232.40;106193;1273;97955;-75
2022/01/23 06:36:10;;;;;;;10.20;5.20;;;;;;;-0.56;72.40;101236.52;105952;1273;137990;-74
2022/01/23 06:38:39;;;;;;;12.60;5.40;;;;;;;-0.56;72.10;101237.71;106063;1273;112746;-74
2022/01/23 06:41:08;;;;;;;12.30;4.80;;;;;;;-0.55;72.20;101239.78;106135;1273;109255;-73
2022/01/23 06:44:16;;;;;;;11.70;5.00;;;;;;;-0.56;72.27;101243.16;105510;1278;138519;-72
2022/01/23 06:46:45;;;;;;;12.00;5.40;;;;;;;-0.56;72.15;101251.02;107112;1277;97068;-74
2022/01/23 06:49:15;;;;;;;12.80;5.70;;;;;;;-0.51;72.41;101260.23;105752;1273;138620;-72
2022/01/23 06:51:45;;;;;;;11.50;5.20;;;;;;;-0.44;72.43;101263.01;106039;1273;113402;-72
2022/01/23 06:54:14;;;;;;;13.00;5.10;;;;;;;-0.37;72.40;101269.04;105946;1272;138031;-73
2022/01/23 06:56:43;;;;;;;13.50;5.70;;;;;;;-0.30;72.30;101270.42;106127;1273;108992;-74
2022/01/23 06:59:14;;;;;;;13.60;6.10;;;;;;;-0.25;72.12;101275.84;106079;1273;100439;-74
2022/01/23 07:01:47;;;;;;;12.40;5.50;;;;;;;-0.25;72.06;101279.77;106003;1272;139160;-74
2022/01/23 07:04:24;;;;;;;12.50;5.90;;;;;;;-0.23;72.08;101285.32;106114;1273;112621;-74
2022/01/23 07:07:13;;;;;;;16.20;5.90;;;;;;;-0.17;72.21;101294.55;105956;1273;137846;-74
2022/01/23 07:10:07;;;;;;;17.30;7.10;;;;;;;-0.13;72.01;101301.67;106028;1273;108875;-75
2022/01/23 07:12:41;;;;;;;12.80;6.90;;;;;;;-0.12;72.12;101303.23;106001;1273;138134;-75
2022/01/23 07:15:26;;;;;;;14.70;6.50;;;;;;;-0.16;71.85;101311.67;105969;1273;97786;-74
2022/01/23 07:18:15;;;;;;;13.80;6.10;;;;;;;-0.19;72.13;101313.46;105975;1273;138500;-74
2022/01/23 07:20:59;;;;;;;14.20;6.10;;;;;;;-0.16;72.11;101314.92;106070;1272;108955;-76
2022/01/23 07:23:33;;;;;;;12.50;5.70;;;;;;;-0.12;72.15;101316.91;106013;1273;108527;-72
2022/01/23 07:26:02;;;;;;;18.90;7.00;;;;;;;-0.06;72.28;101316.21;105859;1273;139256;-71
2022/01/23 07:28:38;;;;;;;13.80;6.40;;;;;;;0.01;72.10;101325.65;106002;1273;98000;-71
2022/01/23 07:31:09;;;;;;;18.80;7.00;;;;;;;0.05;72.02;101319.10;105891;1273;138791;-71
2022/01/23 07:33:38;;;;;;;13.80;6.70;;;;;;;0.09;72.16;101323.13;106073;1273;108633;-71
2022/01/23 07:36:08;;;;;;;15.40;7.20;;;;;;;0.09;72.00;101323.82;105838;1272;139378;-68
2022/01/23 07:38:37;;;;;;;17.40;7.30;;;;;;;0.09;71.81;101326.72;106049;1274;97950;-68
2022/01/23 07:41:24;;;;;;;17.90;7.40;;;;;;;0.11;71.99;101332.77;105895;1273;98384;-68
2022/01/23 07:43:58;;;;;;;16.10;7.30;;;;;;;0.10;71.57;101336.15;106091;1272;137622;-72
2022/01/23 07:46:52;;;;;;;13.40;7.10;;;;;;;0.07;71.48;101344.96;106151;1273;108497;-68
2022/01/23 07:49:35;;;;;;;11.80;6.80;;;;;;;0.04;71.69;101345.56;105684;1273;138118;-69
2022/01/23 07:52:09;;;;;;;11.50;5.70;;;;;;;0.03;71.81;101349.98;106107;1272;97971;-70
2022/01/23 07:55:08;;;;;;;10.80;5.40;;;;;;;0.06;71.74;101356.56;105864;1273;138999;-70
2022/01/23 07:57:42;;;;;;;10.60;5.20;;;;;;;0.12;71.32;101359.81;105962;1273;111404;-69
2022/01/23 08:00:36;;;;;;;11.30;4.80;;;;;;;0.22;70.91;101370.55;106021;1273;137940;-69
2022/01/23 08:03:05;;;;;;;8.70;5.00;;;;;;;0.33;70.42;101379.71;107718;1272;109126;-70
2022/01/23 08:05:54;;;;;;;11.80;4.60;;;;;;;0.42;69.97;101382.20;107720;1272;96048;-69
2022/01/23 08:08:30;;;;;;;9.10;4.70;;;;;;;0.47;69.74;101387.30;107496;1273;137383;-70
2022/01/23 08:11:07;;;;;;;9.00;4.30;;;;;;;0.50;69.42;101395.77;106467;1273;112552;-70
2022/01/23 08:13:36;;;;;;;8.70;4.30;;;;;;;0.51;69.19;101402.96;106025;1273;137679;-69
2022/01/23 08:16:06;;;;;;;6.70;3.60;;;;;;;0.52;68.90;101397.52;106087;1273;108907;-69
2022/01/23 08:18:34;;;;;;;7.20;3.80;;;;;;;0.53;68.64;101401.50;106711;1273;137975;-70
2022/01/23 08:21:03;;;;;;;7.80;3.50;;;;;;;0.57;68.45;101401.44;106144;1272;97820;-72
2022/01/23 08:23:32;;;;;;;5.10;3.10;;;;;;;0.61;67.73;101400.67;106144;1271;112548;-70
2022/01/23 08:26:01;;;;;;;4.80;2.80;;;;;;;0.66;67.36;101405.58;106039;1273;137485;-70
2022/01/23 08:28:29;;;;;;;5.90;2.80;;;;;;;0.69;66.64;101409.09;107639;1272;108396;-71
2022/01/23 08:30:58;;;;;;;4.80;2.60;;;;;;;0.73;66.53;101409.73;107674;1272;137516;-70
2022/01/23 08:33:27;;;;;;;3.60;2.40;;;;;;;0.81;65.85;101413.19;107569;1273;96628;-70
2022/01/23 08:35:57;;;;;;;5.10;2.70;;;;;;;0.90;65.41;101421.66;107721;1272;113566;-70
2022/01/23 08:38:26;;;;;;;4.80;3.10;;;;;;;1.02;65.07;101422.96;107562;1272;137573;-70
2022/01/23 08:43:41;;;;;;;5.50;2.70;;;;;;;1.58;64.92;101422.45;105728;1273;138346;-70
2022/01/23 08:46:10;;;;;;;4.60;3.10;;;;;;;2.00;64.60;101428.02;105907;1276;97852;-70
2022/01/23 08:48:40;;;;;;;5.50;2.70;;;;;;;2.50;64.59;101430.09;106036;1273;137483;-69
2022/01/23 08:51:09;;;;;;;8.20;3.90;;;;;;;3.15;64.25;101430.92;105998;1273;109863;-69
2022/01/23 08:53:38;;;;;;;5.10;3.00;;;;;;;3.76;62.35;101431.39;105886;1273;137743;-70
2022/01/23 08:56:07;;;;;;;4.80;2.60;;;;;;;4.11;61.46;101433.08;106013;1273;97846;-70
2022/01/23 08:58:35;;;;;;;5.70;2.90;;;;;;;4.39;60.19;101440.32;106046;1273;97844;-71
2022/01/23 09:01:04;;;;;;;19.30;8.70;;;;;;;4.61;59.78;101447.98;105934;1274;137326;-70
2022/01/23 09:03:33;;;;;;;7.70;3.80;;;;;;;4.95;59.69;101451.45;106152;1273;107847;-70
2022/01/23 09:06:03;;;;;;;4.70;3.20;;;;;;;5.42;58.86;101444.64;105927;1273;137782;-70
2022/01/23 09:08:34;;;;;;;7.10;4.10;;;;;;;5.81;58.28;101451.82;105937;1273;97983;-70
2022/01/23 09:11:09;;;;;;;5.00;3.00;;;;;;;6.02;57.67;101455.09;106013;1271;97823;-70
2022/01/23 09:13:53;;;;;;;3.90;2.70;;;;;;;6.18;57.13;101456.05;105955;1273;137367;-70
2022/01/23 09:16:22;;;;;;;4.80;2.60;;;;;;;6.21;55.87;101453.81;106110;1273;107908;-70
2022/01/23 09:18:50;;;;;;;7.40;2.50;;;;;;;6.14;55.39;101452.75;105964;1273;137695;-70
2022/01/23 09:21:20;;;;;;;4.60;2.50;;;;;;;6.17;55.51;101454.83;106054;1273;98652;-70
2022/01/23 09:23:48;;;;;;;5.70;2.80;;;;;;;6.22;55.49;101454.67;105919;1274;137454;-72
2022/01/23 09:26:21;;;;;;;4.20;2.60;;;;;;;6.45;55.50;101457.90;106036;1273;112516;-70
2022/01/23 09:28:49;;;;;;;4.40;2.20;;;;;;;6.71;54.37;101459.36;106090;1273;109282;-71
2022/01/23 09:31:28;;;;;;;4.30;2.60;;;;;;;6.82;52.84;101458.88;105980;1273;137673;-71
2022/01/23 09:33:57;;;;;;;6.20;3.10;;;;;;;7.28;53.99;101464.32;106153;1273;97851;-70
2022/01/23 09:36:26;;;;;;;10.20;4.30;;;;;;;7.88;53.52;101463.60;106073;1273;140059;-70
2022/01/23 09:38:55;;;;;;;7.10;3.90;;;;;;;8.38;52.75;101464.36;106100;1273;112572;-70
2022/01/23 09:41:29;;;;;;;9.30;4.10;;;;;;;8.64;52.09;101461.66;107666;1273;109108;-70
2022/01/23 09:44:01;;;;;;;4.90;3.00;;;;;;;8.91;51.25;101461.68;107536;1273;137616;-70
2022/01/23 09:46:29;;;;;;;6.70;3.30;;;;;;;9.20;51.04;101451.60;106201;1273;97966;-70
2022/01/23 09:48:58;;;;;;;4.20;3.10;;;;;;;9.40;50.31;101450.23;106043;1273;137922;-73
2022/01/23 09:51:29;;;;;;;7.20;2.80;;;;;;;9.59;50.03;101445.73;106031;1273;112166;-71
2022/01/23 09:53:58;;;;;;;5.90;2.90;;;;;;;9.78;49.55;101446.25;105832;1273;138002;-72
2022/01/23 09:56:30;;;;;;;4.90;3.10;;;;;;;10.06;49.40;101445.44;106028;1273;108972;-71
2022/01/23 09:58:58;;;;;;;4.30;3.00;;;;;;;10.19;48.46;101448.23;105916;1273;97953;-71
2022/01/23 10:01:27;;;;;;;4.60;2.70;;;;;;;10.27;47.60;101445.23;105974;1273;138532;-68
2022/01/23 10:03:56;;;;;;;4.30;2.70;;;;;;;10.33;46.84;101439.60;106037;1273;112950;-69
2022/01/23 10:06:25;;;;;;;4.30;2.60;;;;;;;10.56;47.00;101437.22;106049;1273;138192;-70
2022/01/23 10:08:54;;;;;;;6.10;2.90;;;;;;;10.87;46.71;101435.23;106045;1273;107787;-69
2022/01/23 10:11:23;;;;;;;11.10;3.00;;;;;;;11.19;46.36;101430.91;106046;1273;97887;-72
2022/01/23 10:13:53;;;;;;;4.80;2.80;;;;;;;11.45;46.48;101434.66;105963;1275;138245;-72
2022/01/23 10:16:22;;;;;;;4.90;2.90;;;;;;;11.76;46.22;101427.86;106096;1273;112630;-72
2022/01/23 10:18:51;;;;;;;10.90;5.70;;;;;;;11.97;45.47;101431.31;105988;1273;138668;-72
2022/01/23 10:21:21;;;;;;;5.20;2.80;;;;;;;12.22;45.39;101435.73;106137;1273;109509;-72
2022/01/23 10:23:52;;;;;;;4.60;3.20;;;;;;;12.50;44.93;101441.59;105850;1272;138250;-70
2022/01/23 10:26:38;;;;;;;4.60;2.60;;;;;;;12.74;44.26;101440.73;106110;1273;97828;-71
2022/01/23 10:29:19;;;;;;;3.90;2.90;;;;;;;13.06;43.77;101435.64;106655;1273;112579;-72
2022/01/23 10:32:11;;;;;;;3.40;2.60;;;;;;;13.15;42.77;101431.92;105940;1273;137939;-72
2022/01/23 10:34:52;;;;;;;4.20;2.80;;;;;;;13.32;41.83;101431.73;107638;1273;107897;-70
2022/01/23 10:37:36;;;;;;;2.90;2.20;;;;;;;13.29;41.08;101433.89;107508;1273;138992;-71
2022/01/23 10:40:24;;;;;;;3.50;2.20;;;;;;;13.27;40.65;101438.81;107571;1273;96370;-71
2022/01/23 10:48:42;;;;;;;3.30;2.60;;;;;;;13.61;40.73;101441.30;107496;1273;140124;-70
2022/01/23 10:51:28;;;;;;;4.60;2.80;;;;;;;13.79;40.78;101442.75;107595;1273;96470;-72
2022/01/23 10:54:13;;;;;;;4.70;2.60;;;;;;;13.89;39.29;101443.71;107525;1272;138032;-71
2022/01/23 10:56:59;;;;;;;5.10;2.60;;;;;;;13.74;39.59;101442.35;107564;1272;112932;-71
2022/01/23 10:59:43;;;;;;;3.80;2.90;;;;;;;13.74;38.63;101433.61;106443;1273;108834;-73
2022/01/23 11:02:14;;;;;;;6.00;3.00;;;;;;;13.63;38.74;101434.79;105860;1274;139968;-73
2022/01/23 11:04:58;;;;;;;5.00;2.70;;;;;;;13.57;38.86;101441.55;105946;1273;98003;-71
2022/01/23 11:07:28;;;;;;;3.70;2.90;;;;;;;13.48;38.45;101443.71;106022;1273;137725;-71
2022/01/23 11:10:03;;;;;;;4.80;3.50;;;;;;;13.31;38.65;101443.63;106009;1273;113146;-71
2022/01/23 11:18:38;;;;;;;6.20;2.90;;;;;;;12.99;38.50;101445.41;105916;1273;139503;-72
2022/01/23 11:21:21;;;;;;;6.20;3.50;;;;;;;12.79;38.25;101444.65;105967;1273;97918;-72
2022/01/23 11:24:12;;;;;;;4.90;3.20;;;;;;;12.72;38.48;101454.19;106742;1274;138017;-71
2022/01/23 11:26:44;;;;;;;6.40;3.50;;;;;;;12.70;38.35;101455.45;106037;1273;109458;-70
2022/01/23 11:29:14;;;;;;;4.60;3.10;;;;;;;12.69;37.96;101458.98;107543;1273;108730;-72
2022/01/23 11:31:44;;;;;;;4.90;3.50;;;;;;;12.50;37.23;101464.27;107498;1273;138852;-73
2022/01/23 11:34:14;;;;;;;5.90;3.30;;;;;;;12.25;37.06;101464.08;107543;1273;96129;-74
2022/01/23 11:36:43;;;;;;;5.30;3.10;;;;;;;12.05;37.45;101466.89;107409;1273;139413;-72
2022/01/23 11:39:15;;;;;;;8.30;4.70;;;;;;;11.91;37.94;101460.38;107645;1273;108948;-74
2022/01/23 11:50:47;;;;;;;3.80;2.90;;;;;;;11.70;37.87;101474.84;105934;1273;137906;-72
2022/01/23 11:53:46;;;;;;;4.20;2.80;;;;;;;11.63;37.88;101482.09;105765;1273;108905;-71
2022/01/23 11:56:46;;;;;;;12.80;7.40;;;;;;;11.55;37.71;101481.88;105805;1273;137924;-71
2022/01/23 11:59:50;;;;;;;6.70;3.80;;;;;;;11.36;37.59;101483.56;105445;1277;98077;-72
2022/01/23 12:02:27;;;;;;;4.60;3.50;;;;;;;11.30;37.89;101482.25;105867;1273;138778;-71
2022/01/23 12:05:22;;;;;;;7.70;3.40;;;;;;;11.32;37.95;101479.64;106010;1273;112778;-72
2022/01/23 12:08:34;;;;;;;5.90;3.10;;;;;;;11.32;37.60;101477.20;106504;1273;137934;-71
2022/01/23 12:11:39;;;;;;;4.40;3.00;;;;;;;10.95;37.12;101480.00;107532;1273;108879;-74
2022/01/23 12:17:41;;;;;;;4.30;2.90;;;;;;;10.71;37.64;101474.77;107597;1273;95750;-72
2022/01/23 12:20:10;;;;;;;4.60;3.10;;;;;;;10.67;37.90;101479.87;107496;1273;137711;-72
2022/01/23 12:22:54;;;;;;;11.60;3.40;;;;;;;10.69;38.07;101487.49;107570;1273;109114;-72
2022/01/23 12:25:28;;;;;;;9.70;3.90;;;;;;;10.69;38.11;101487.99;107387;1274;139453;-71
2022/01/23 12:28:25;;;;;;;6.20;3.50;;;;;;;10.67;37.79;101490.98;107570;1273;97601;-71
2022/01/23 12:30:55;;;;;;;5.40;3.30;;;;;;;10.59;37.92;101497.00;105968;1273;137871;-71
2022/01/23 12:33:30;;;;;;;4.30;3.10;;;;;;;10.55;37.79;101501.05;105892;1273;111842;-73
2022/01/23 12:36:03;;;;;;;6.10;3.20;;;;;;;10.49;37.67;101501.30;106499;1273;109144;-72
2022/01/23 12:38:37;;;;;;;7.00;4.00;;;;;;;10.42;37.53;101504.87;107499;1273;138505;-72
2022/01/23 12:41:23;;;;;;;6.80;3.30;;;;;;;10.37;37.85;101510.13;107474;1273;96443;-73
2022/01/23 12:43:55;;;;;;;6.90;3.70;;;;;;;10.28;37.70;101518.41;107464;1273;138303;-73
2022/01/23 12:46:30;;;;;;;5.10;3.70;;;;;;;10.16;37.65;101522.66;107612;1272;111970;-73
2022/01/23 12:49:15;;;;;;;6.80;3.60;;;;;;;10.13;37.65;101527.56;107491;1273;137820;-71
2022/01/23 12:51:43;;;;;;;6.90;3.80;;;;;;;9.99;37.63;101528.55;107540;1273;106859;-73
2022/01/23 12:54:27;;;;;;;7.10;4.10;;;;;;;9.85;37.79;101537.71;107506;1273;137956;-73
2022/01/23 12:57:04;;;;;;;10.20;4.40;;;;;;;9.85;37.99;101541.70;107617;1273;96296;-73
2022/01/23 12:59:34;;;;;;;9.00;3.70;;;;;;;9.91;38.08;101545.32;107598;1273;112076;-72
2022/01/23 13:02:09;;;;;;;6.70;4.30;;;;;;;9.93;37.64;101546.69;107325;1273;139600;-72
2022/01/23 13:04:40;;;;;;;7.60;4.60;;;;;;;9.82;37.38;101551.12;105702;1273;107635;-75
2022/01/23 13:07:24;;;;;;;8.00;4.40;;;;;;;9.76;37.76;101554.48;105573;1273;137728;-72
2022/01/23 13:09:59;;;;;;;7.10;4.00;;;;;;;9.73;37.66;101556.42;106042;1273;97711;-71
2022/01/23 13:15:41;;;;;;;9.00;5.30;;;;;;;9.61;37.62;101569.17;106023;1273;109729;-73
2022/01/23 13:18:32;;;;;;;8.80;4.60;;;;;;;9.52;37.72;101575.14;107568;1273;109260;-74
2022/01/23 13:29:58;;;;;;;8.80;5.00;;;;;;;9.13;37.65;101570.16;107538;1273;109376;-74
2022/01/23 13:32:37;;;;;;;9.20;5.10;;;;;;;8.97;37.44;101573.88;107392;1274;137882;-73
2022/01/23 13:35:11;;;;;;;12.00;5.40;;;;;;;8.76;37.70;101570.15;107551;1273;96091;-74
2022/01/23 13:37:43;;;;;;;8.20;5.30;;;;;;;8.65;38.37;101573.48;107554;1273;137632;-74
2022/01/23 13:40:15;;;;;;;8.90;5.20;;;;;;;8.57;38.41;101571.24;107472;1273;113102;-75
2022/01/23 13:48:54;;;;;;;9.10;5.50;;;;;;;8.18;38.03;101578.73;107602;1273;96193;-74
2022/01/23 13:51:35;;;;;;;10.40;5.50;;;;;;;7.98;38.59;101580.66;107500;1273;96118;-76
2022/01/23 13:57:32;;;;;;;7.10;4.80;;;;;;;7.87;38.79;101585.86;107624;1273;113129;-73
2022/01/23 14:00:00;;;;;;;9.90;4.90;;;;;;;7.47;38.73;101588.58;107609;1273;108982;-74
2022/01/23 14:02:31;;;;;;;8.20;5.20;;;;;;;7.35;39.13;101587.52;107469;1273;139162;-76
2022/01/23 14:05:11;;;;;;;9.10;5.10;;;;;;;7.28;39.36;101589.23;107489;1273;96472;-73
2022/01/23 14:07:40;;;;;;;9.40;5.40;;;;;;;7.22;39.36;101592.67;107429;1274;138623;-75
2022/01/23 14:10:15;;;;;;;8.30;5.00;;;;;;;7.08;39.20;101589.86;107594;1273;108990;-72
2022/01/23 14:12:47;;;;;;;8.80;5.00;;;;;;;6.94;39.33;101589.62;107492;1273;108947;-77
2022/01/23 14:15:21;;;;;;;9.20;4.80;;;;;;;6.84;39.49;101589.24;107424;1273;139372;-74
2022/01/23 14:17:59;;;;;;;10.50;5.40;;;;;;;6.70;39.54;101594.54;107517;1274;96082;-74
2022/01/23 14:20:26;;;;;;;;;;;;;;;6.55;39.55;101598.08;107458;1273;138463;-75
2022/01/23 14:22:56;;;;;;;10.20;4.90;;;;;;;6.41;39.56;101599.71;107544;1273;109817;-74